Time;durP1;ratioP1;P1;durP2;ratioP2;P2;SDS_P1;SDS_P2;PMS_P1;PMS_P2;Temp;Humidity;BMP_temperature;BMP_pressure;BME280_temperature;BME280_humidity;BME280_pressure;Samples;Min_cycle;Max_cycle;Signal;HPM_P1;HPM_P2
2022/08/04 00:02:03;;;;;;;6.13;4.63;;;;;;;;;;5090420;28;20439;-75
2022/08/04 00:04:33;;;;;;;6.27;5.67;;;;;;;;;;5089929;28;20467;-74
2022/08/04 00:07:04;;;;;;;5.00;4.60;;;;;;;;;;5090165;28;20440;-75
2022/08/04 00:09:37;;;;;;;5.77;5.27;;;;;;;;;;5087208;28;20494;-76
2022/08/04 00:12:06;;;;;;;5.83;4.80;;;;;;;;;;5069800;28;20448;-74
2022/08/04 00:14:35;;;;;;;5.60;5.10;;;;;;;;;;5084814;28;20532;-75
2022/08/04 00:17:04;;;;;;;5.90;5.40;;;;;;;;;;5089913;28;20476;-75
2022/08/04 00:19:32;;;;;;;5.37;4.87;;;;;;;;;;5089796;28;20444;-75
2022/08/04 00:22:02;;;;;;;5.10;4.80;;;;;;;;;;5090050;28;20526;-76
2022/08/04 00:24:30;;;;;;;5.33;4.83;;;;;;;;;;5089668;28;20489;-75
2022/08/04 00:26:57;;;;;;;7.47;5.20;;;;;;;;;;5089924;28;20440;-75
2022/08/04 00:29:25;;;;;;;4.37;4.10;;;;;;;;;;5090140;28;20536;-75
2022/08/04 00:31:55;;;;;;;5.67;5.03;;;;;;;;;;5089677;28;20444;-75
2022/08/04 00:34:24;;;;;;;5.70;5.20;;;;;;;;;;5089606;28;20467;-74
2022/08/04 00:36:51;;;;;;;4.77;4.47;;;;;;;;;;5090276;28;20478;-75
2022/08/04 00:39:18;;;;;;;4.90;4.60;;;;;;;;;;5091059;28;20447;-75
2022/08/04 00:41:52;;;;;;;4.93;4.53;;;;;;;;;;5091665;28;20560;-76
2022/08/04 00:44:24;;;;;;;5.13;4.40;;;;;;;;;;5090832;28;20520;-75
2022/08/04 00:47:01;;;;;;;5.10;4.57;;;;;;;;;;5089880;28;20440;-76
2022/08/04 00:49:39;;;;;;;4.93;4.53;;;;;;;;;;5092284;28;20477;-74
2022/08/04 00:52:11;;;;;;;4.03;3.73;;;;;;;;;;5110277;28;20469;-75
2022/08/04 00:54:42;;;;;;;4.30;4.00;;;;;;;;;;5110079;28;20466;-75
2022/08/04 00:57:22;;;;;;;4.07;3.67;;;;;;;;;;5110293;28;20543;-74
2022/08/04 00:59:56;;;;;;;5.37;4.07;;;;;;;;;;5110223;28;20523;-74
2022/08/04 01:02:29;;;;;;;6.57;4.20;;;;;;;;;;5111632;28;20443;-74
2022/08/04 01:05:02;;;;;;;4.73;4.20;;;;;;;;;;5112203;28;20474;-75
2022/08/04 01:07:37;;;;;;;4.93;4.53;;;;;;;;;;5111108;28;20463;-75
2022/08/04 01:10:09;;;;;;;4.90;4.27;;;;;;;;;;5102255;28;20526;-74
2022/08/04 01:12:48;;;;;;;4.93;4.30;;;;;;;;;;5092782;28;20911;-74
2022/08/04 01:15:18;;;;;;;5.77;3.80;;;;;;;;;;5093198;28;20471;-75
2022/08/04 01:17:54;;;;;;;7.03;3.77;;;;;;;;;;5093303;28;20551;-75
2022/08/04 01:20:22;;;;;;;4.27;3.87;;;;;;;;;;5093343;28;20452;-75
2022/08/04 01:23:10;;;;;;;6.97;4.00;;;;;;;;;;5092778;28;20456;-74
2022/08/04 01:25:56;;;;;;;4.80;4.00;;;;;;;;;;5093188;28;20517;-75
2022/08/04 01:28:29;;;;;;;4.30;3.90;;;;;;;;;;5093264;28;20788;-76
2022/08/04 01:31:02;;;;;;;5.80;4.20;;;;;;;;;;5092891;28;20482;-74
2022/08/04 01:33:30;;;;;;;4.80;4.37;;;;;;;;;;5092807;28;20432;-75
2022/08/04 01:35:58;;;;;;;4.77;4.20;;;;;;;;;;5092862;28;20485;-75
2022/08/04 01:38:26;;;;;;;7.40;4.20;;;;;;;;;;5092705;28;20479;-75
2022/08/04 01:40:53;;;;;;;4.43;4.13;;;;;;;;;;5092551;28;20448;-75
2022/08/04 01:43:21;;;;;;;4.80;4.40;;;;;;;;;;5092353;28;20927;-74
2022/08/04 01:45:50;;;;;;;4.60;4.20;;;;;;;;;;5092511;28;20489;-74
2022/08/04 01:48:18;;;;;;;7.60;3.93;;;;;;;;;;5092596;28;20439;-75
2022/08/04 01:50:46;;;;;;;4.23;3.93;;;;;;;;;;5105715;28;20464;-74
2022/08/04 01:53:13;;;;;;;4.73;4.07;;;;;;;;;;5112876;28;20443;-74
2022/08/04 01:55:41;;;;;;;4.80;4.33;;;;;;;;;;5112844;28;20470;-75
2022/08/04 01:58:09;;;;;;;4.93;4.43;;;;;;;;;;5112580;28;20478;-73
2022/08/04 02:00:36;;;;;;;4.57;4.27;;;;;;;;;;5112482;27;20446;-75
2022/08/04 02:03:03;;;;;;;4.30;3.90;;;;;;;;;;5112147;27;20488;-75
2022/08/04 02:05:32;;;;;;;4.07;3.50;;;;;;;;;;5112296;27;20458;-75
2022/08/04 02:08:05;;;;;;;4.40;3.90;;;;;;;;;;5112699;28;20447;-76
2022/08/04 02:10:36;;;;;;;4.50;4.10;;;;;;;;;;5101442;28;20461;-75
2022/08/04 02:13:10;;;;;;;4.63;4.00;;;;;;;;;;5091822;28;20996;-75
2022/08/04 02:15:40;;;;;;;4.60;4.20;;;;;;;;;;5091939;28;20983;-74
2022/08/04 02:18:14;;;;;;;5.60;4.10;;;;;;;;;;5092081;28;20464;-74
2022/08/04 02:20:44;;;;;;;4.57;3.93;;;;;;;;;;5092499;28;20439;-74
2022/08/04 02:23:15;;;;;;;7.00;4.53;;;;;;;;;;5091911;28;20513;-74
2022/08/04 02:25:46;;;;;;;9.23;4.60;;;;;;;;;;5091904;28;20874;-75
2022/08/04 02:28:17;;;;;;;4.67;4.13;;;;;;;;;;5092118;28;20481;-74
2022/08/04 02:30:47;;;;;;;5.10;4.00;;;;;;;;;;5091625;28;20439;-75
2022/08/04 02:33:18;;;;;;;4.43;4.03;;;;;;;;;;5091459;28;20862;-75
2022/08/04 02:35:52;;;;;;;4.27;3.97;;;;;;;;;;5091647;28;20525;-75
2022/08/04 02:38:24;;;;;;;4.93;4.40;;;;;;;;;;5091317;28;20882;-74
2022/08/04 02:40:52;;;;;;;4.10;3.77;;;;;;;;;;5091559;28;20486;-75
2022/08/04 02:43:20;;;;;;;4.40;4.00;;;;;;;;;;5091011;28;20448;-74
2022/08/04 02:45:47;;;;;;;4.30;4.03;;;;;;;;;;5091170;28;21252;-75
2022/08/04 02:48:15;;;;;;;5.10;4.50;;;;;;;;;;5091242;28;20523;-75
2022/08/04 02:50:44;;;;;;;4.10;3.67;;;;;;;;;;5091581;28;20513;-75
2022/08/04 02:53:15;;;;;;;4.93;4.40;;;;;;;;;;5091262;28;20443;-75
2022/08/04 02:55:44;;;;;;;4.20;3.80;;;;;;;;;;5071394;28;20468;-75
2022/08/04 02:58:13;;;;;;;4.30;3.90;;;;;;;;;;5086501;28;20514;-75
2022/08/04 03:00:40;;;;;;;4.97;4.50;;;;;;;;;;5090662;28;20445;-75
2022/08/04 03:03:16;;;;;;;4.83;4.33;;;;;;;;;;5088111;28;20452;-73
2022/08/04 03:05:54;;;;;;;5.23;4.40;;;;;;;;;;5071530;28;20893;-75
2022/08/04 03:08:45;;;;;;;4.20;3.87;;;;;;;;;;5071273;28;20454;-75
2022/08/04 03:11:29;;;;;;;4.67;4.30;;;;;;;;;;5077526;28;20462;-75
2022/08/04 03:14:06;;;;;;;6.20;4.10;;;;;;;;;;5090279;28;20459;-74
2022/08/04 03:16:44;;;;;;;4.23;3.93;;;;;;;;;;5090939;28;20443;-74
2022/08/04 03:19:29;;;;;;;4.37;4.07;;;;;;;;;;5091145;28;20528;-75
2022/08/04 03:22:03;;;;;;;4.67;4.17;;;;;;;;;;5090299;28;20440;-75
2022/08/04 03:24:42;;;;;;;5.63;4.37;;;;;;;;;;5090201;28;20462;-74
2022/08/04 03:27:19;;;;;;;4.77;4.40;;;;;;;;;;5090735;28;20443;-75
2022/08/04 03:30:04;;;;;;;4.67;4.20;;;;;;;;;;5090629;28;20926;-75
2022/08/04 03:33:04;;;;;;;4.40;4.00;;;;;;;;;;5090164;28;20458;-76
2022/08/04 03:35:49;;;;;;;4.67;4.23;;;;;;;;;;5090195;28;20841;-75
2022/08/04 03:38:31;;;;;;;4.77;4.37;;;;;;;;;;5090063;28;20479;-74
2022/08/04 03:41:13;;;;;;;4.50;4.20;;;;;;;;;;5077336;28;20448;-75
2022/08/04 03:44:02;;;;;;;4.70;4.40;;;;;;;;;;5089954;28;20479;-76
2022/08/04 03:46:47;;;;;;;4.37;4.07;;;;;;;;;;5064518;28;20444;-75
2022/08/04 03:49:29;;;;;;;4.53;4.13;;;;;;;;;;5090118;28;20932;-75
2022/08/04 03:55:09;;;;;;;5.03;4.47;;;;;;;;;;5105353;28;20438;-75
2022/08/04 03:57:54;;;;;;;4.30;3.83;;;;;;;;;;5111012;28;20595;-75
2022/08/04 04:00:26;;;;;;;5.60;5.10;;;;;;;;;;5110078;28;20525;-74
2022/08/04 04:03:17;;;;;;;6.57;4.30;;;;;;;;;;5110159;28;20500;-74
2022/08/04 04:05:55;;;;;;;7.77;4.57;;;;;;;;;;5094700;28;20823;-75
2022/08/04 04:08:43;;;;;;;4.57;4.17;;;;;;;;;;5110567;28;20492;-75
2022/08/04 04:11:31;;;;;;;4.87;4.40;;;;;;;;;;5095226;28;20439;-74
2022/08/04 04:14:09;;;;;;;4.53;4.00;;;;;;;;;;5087355;28;20982;-74
2022/08/04 04:16:46;;;;;;;3.90;3.60;;;;;;;;;;5091519;28;20435;-74
2022/08/04 04:19:31;;;;;;;5.13;4.40;;;;;;;;;;5090070;28;20983;-75
2022/08/04 04:22:13;;;;;;;4.80;4.40;;;;;;;;;;5083955;28;20440;-75
2022/08/04 04:24:56;;;;;;;5.40;4.90;;;;;;;;;;5075535;28;20533;-75
2022/08/04 04:27:29;;;;;;;5.50;4.30;;;;;;;;;;5093154;28;20461;-74
2022/08/04 04:30:14;;;;;;;4.20;3.80;;;;;;;;;;5111538;28;20511;-75
2022/08/04 04:33:12;;;;;;;5.63;4.20;;;;;;;;;;5112393;28;20450;-75
2022/08/04 04:35:42;;;;;;;4.67;4.17;;;;;;;;;;5051514;28;20462;-74
2022/08/04 04:38:27;;;;;;;4.63;4.30;;;;;;;;;;5102267;28;20477;-75
2022/08/04 04:41:00;;;;;;;4.33;4.00;;;;;;;;;;5085688;28;20505;-75
2022/08/04 04:43:35;;;;;;;3.90;3.50;;;;;;;;;;5089333;28;20439;-74
2022/08/04 04:46:05;;;;;;;5.10;4.60;;;;;;;;;;5090571;28;20500;-76
2022/08/04 04:48:37;;;;;;;6.63;4.63;;;;;;;;;;5093926;28;20838;-75
2022/08/04 04:51:11;;;;;;;6.53;4.00;;;;;;;;;;5093906;28;20967;-75
2022/08/04 04:53:43;;;;;;;4.07;3.77;;;;;;;;;;5093227;28;20465;-75
2022/08/04 04:56:15;;;;;;;4.50;3.90;;;;;;;;;;5094083;28;20507;-75
2022/08/04 04:58:43;;;;;;;4.27;3.87;;;;;;;;;;5093392;28;20974;-74
2022/08/04 05:01:30;;;;;;;5.70;3.87;;;;;;;;;;5093528;28;20439;-74
2022/08/04 05:04:12;;;;;;;5.63;3.77;;;;;;;;;;5093674;28;20877;-75
2022/08/04 05:06:50;;;;;;;4.33;3.93;;;;;;;;;;5092862;28;20854;-75
2022/08/04 05:09:22;;;;;;;4.90;3.90;;;;;;;;;;5095026;28;20431;-75
2022/08/04 05:11:58;;;;;;;5.27;4.50;;;;;;;;;;5094117;28;20431;-74
2022/08/04 05:14:28;;;;;;;4.57;4.17;;;;;;;;;;5093145;28;20516;-74
2022/08/04 05:16:58;;;;;;;4.27;3.90;;;;;;;;;;5103603;28;20435;-74
2022/08/04 05:19:26;;;;;;;4.60;4.30;;;;;;;;;;5113953;28;20574;-75
2022/08/04 05:22:00;;;;;;;5.20;4.23;;;;;;;;;;5113655;27;20934;-75
2022/08/04 05:24:27;;;;;;;4.90;4.27;;;;;;;;;;5113831;27;20454;-75
2022/08/04 05:26:56;;;;;;;4.10;3.70;;;;;;;;;;5113787;28;20525;-75
2022/08/04 05:29:28;;;;;;;3.83;3.53;;;;;;;;;;5113979;27;20435;-74
2022/08/04 05:31:56;;;;;;;5.03;3.90;;;;;;;;;;5114353;28;20968;-75
2022/08/04 05:34:25;;;;;;;5.37;3.90;;;;;;;;;;5113454;28;20470;-74
2022/08/04 05:36:54;;;;;;;3.63;3.33;;;;;;;;;;5113403;28;21084;-76
2022/08/04 05:39:24;;;;;;;3.73;3.43;;;;;;;;;;5114002;28;20544;-75
2022/08/04 05:41:53;;;;;;;3.53;3.23;;;;;;;;;;5114532;28;20474;-76
2022/08/04 05:44:22;;;;;;;3.07;2.87;;;;;;;;;;5113257;27;20827;-75
2022/08/04 05:46:51;;;;;;;3.60;3.30;;;;;;;;;;5113807;28;20447;-74
2022/08/04 05:49:18;;;;;;;3.87;3.30;;;;;;;;;;5113611;28;20507;-74
2022/08/04 05:51:46;;;;;;;4.00;3.60;;;;;;;;;;5113454;28;20446;-75
2022/08/04 05:54:13;;;;;;;3.67;3.40;;;;;;;;;;5113542;28;20470;-75
2022/08/04 05:56:42;;;;;;;6.80;3.57;;;;;;;;;;5112589;28;20488;-75
2022/08/04 05:59:11;;;;;;;3.47;3.17;;;;;;;;;;5112949;28;21026;-76
2022/08/04 06:01:39;;;;;;;3.37;2.97;;;;;;;;;;5113353;28;20462;-75
2022/08/04 06:04:07;;;;;;;4.00;3.60;;;;;;;;;;5107736;28;20490;-75
2022/08/04 06:06:35;;;;;;;6.87;3.80;;;;;;;;;;5093433;28;20452;-76
2022/08/04 06:09:02;;;;;;;3.83;3.50;;;;;;;;;;5101026;28;20919;-74
2022/08/04 06:11:29;;;;;;;4.23;3.63;;;;;;;;;;5082240;28;20455;-75
2022/08/04 06:13:59;;;;;;;4.20;3.80;;;;;;;;;;5106083;28;20539;-76
2022/08/04 06:16:28;;;;;;;4.60;3.73;;;;;;;;;;5114063;28;20432;-76
2022/08/04 06:18:57;;;;;;;4.87;3.37;;;;;;;;;;5115171;28;20536;-78
2022/08/04 06:21:27;;;;;;;4.73;3.50;;;;;;;;;;5101765;28;20488;-76
2022/08/04 06:23:55;;;;;;;3.80;3.23;;;;;;;;;;5072285;28;20518;-74
2022/08/04 06:26:22;;;;;;;7.60;3.47;;;;;;;;;;5072061;28;20452;-76
2022/08/04 06:28:51;;;;;;;3.90;3.57;;;;;;;;;;5071597;28;20452;-75
2022/08/04 06:31:31;;;;;;;4.07;3.30;;;;;;;;;;5072216;28;20502;-76
2022/08/04 06:33:59;;;;;;;5.10;4.60;;;;;;;;;;5072057;28;20804;-74
2022/08/04 06:36:26;;;;;;;4.00;3.70;;;;;;;;;;5072173;28;20498;-75
2022/08/04 06:38:54;;;;;;;11.00;9.90;;;;;;;;;;5071752;28;20839;-75
2022/08/04 06:41:22;;;;;;;5.80;5.40;;;;;;;;;;5071904;28;20862;-75
2022/08/04 06:43:49;;;;;;;3.50;3.20;;;;;;;;;;5071459;28;20461;-75
2022/08/04 06:46:16;;;;;;;4.47;3.33;;;;;;;;;;5071158;28;20445;-75
2022/08/04 06:48:46;;;;;;;4.47;3.80;;;;;;;;;;5072280;28;20441;-76
2022/08/04 06:51:14;;;;;;;4.03;3.70;;;;;;;;;;5072140;28;20444;-75
2022/08/04 06:53:41;;;;;;;4.53;3.67;;;;;;;;;;5071133;28;20501;-75
2022/08/04 06:56:08;;;;;;;4.87;3.70;;;;;;;;;;5071874;28;20455;-74
2022/08/04 06:58:35;;;;;;;6.30;3.90;;;;;;;;;;5072399;28;21275;-75
2022/08/04 07:01:03;;;;;;;4.70;4.30;;;;;;;;;;5074529;28;20494;-74
2022/08/04 07:03:31;;;;;;;4.27;3.87;;;;;;;;;;5073234;28;20449;-75
2022/08/04 07:06:00;;;;;;;3.70;3.40;;;;;;;;;;5072047;28;20916;-76
2022/08/04 07:08:27;;;;;;;3.50;3.20;;;;;;;;;;5071086;28;20452;-76
2022/08/04 07:10:55;;;;;;;8.63;4.00;;;;;;;;;;5084565;28;20462;-75
2022/08/04 07:13:23;;;;;;;4.50;3.83;;;;;;;;;;5111645;28;20447;-76
2022/08/04 07:15:50;;;;;;;6.90;3.90;;;;;;;;;;5111404;28;20459;-76
2022/08/04 07:18:17;;;;;;;5.83;4.23;;;;;;;;;;5111410;28;20447;-75
2022/08/04 07:20:45;;;;;;;6.30;4.07;;;;;;;;;;5111652;28;20547;-75
2022/08/04 07:23:16;;;;;;;4.33;3.60;;;;;;;;;;5112206;28;20443;-76
2022/08/04 07:25:43;;;;;;;6.00;3.63;;;;;;;;;;5113089;28;20534;-77
2022/08/04 07:28:10;;;;;;;6.40;3.60;;;;;;;;;;5083739;28;20457;-75
2022/08/04 07:30:38;;;;;;;4.40;4.00;;;;;;;;;;5097236;28;21211;-76
2022/08/04 07:33:06;;;;;;;5.03;4.00;;;;;;;;;;5090669;28;20501;-75
2022/08/04 07:35:33;;;;;;;3.80;3.50;;;;;;;;;;5090560;28;20868;-76
2022/08/04 07:38:00;;;;;;;6.70;4.30;;;;;;;;;;5090963;28;20501;-75
2022/08/04 07:40:29;;;;;;;6.50;4.60;;;;;;;;;;5090991;28;20472;-75
2022/08/04 07:42:56;;;;;;;4.40;4.00;;;;;;;;;;5090542;28;20494;-75
2022/08/04 07:45:23;;;;;;;4.00;3.70;;;;;;;;;;5079115;28;20476;-77
2022/08/04 07:47:51;;;;;;;3.70;3.40;;;;;;;;;;5089924;28;20435;-76
2022/08/04 07:50:19;;;;;;;3.67;3.33;;;;;;;;;;5090084;28;20440;-76
2022/08/04 07:52:46;;;;;;;3.70;3.27;;;;;;;;;;5090089;28;20870;-76
2022/08/04 07:55:13;;;;;;;8.13;4.20;;;;;;;;;;5090680;28;20456;-77
2022/08/04 07:57:42;;;;;;;6.80;3.43;;;;;;;;;;5089864;28;20485;-76
2022/08/04 08:00:10;;;;;;;5.13;4.00;;;;;;;;;;5090411;28;20475;-76
2022/08/04 08:02:37;;;;;;;6.77;3.57;;;;;;;;;;5090197;28;20845;-77
2022/08/04 08:05:04;;;;;;;4.97;3.20;;;;;;;;;;5090704;28;20816;-77
2022/08/04 08:07:32;;;;;;;3.73;3.43;;;;;;;;;;5090640;28;20447;-77
2022/08/04 08:09:59;;;;;;;3.57;3.27;;;;;;;;;;5090192;28;20505;-75
2022/08/04 08:12:26;;;;;;;4.13;3.67;;;;;;;;;;5089982;28;20455;-76
2022/08/04 08:14:55;;;;;;;5.13;4.00;;;;;;;;;;5090492;28;20464;-75
2022/08/04 08:17:22;;;;;;;9.87;3.83;;;;;;;;;;5090431;28;20446;-76
2022/08/04 08:19:50;;;;;;;5.37;4.40;;;;;;;;;;5090782;28;20486;-75
2022/08/04 08:22:17;;;;;;;3.73;3.43;;;;;;;;;;5090408;28;20543;-75
2022/08/04 08:24:44;;;;;;;7.17;3.60;;;;;;;;;;5091524;28;20997;-75
2022/08/04 08:27:11;;;;;;;4.27;3.67;;;;;;;;;;5080514;28;20818;-74
2022/08/04 08:29:39;;;;;;;4.00;3.30;;;;;;;;;;5075520;28;20912;-76
2022/08/04 08:32:09;;;;;;;4.50;3.30;;;;;;;;;;5095571;28;20756;-75
2022/08/04 08:34:38;;;;;;;6.67;4.00;;;;;;;;;;5096355;28;20508;-76
2022/08/04 08:37:10;;;;;;;5.00;3.50;;;;;;;;;;5092616;28;20508;-74
2022/08/04 08:39:40;;;;;;;4.13;3.70;;;;;;;;;;5086218;28;20468;-77
2022/08/04 08:42:25;;;;;;;3.67;3.37;;;;;;;;;;5088038;28;20854;-75
2022/08/04 08:45:08;;;;;;;5.43;2.87;;;;;;;;;;5098451;28;20500;-74
2022/08/04 08:47:51;;;;;;;5.70;3.40;;;;;;;;;;5096018;28;20424;-75
2022/08/04 08:50:28;;;;;;;6.13;3.17;;;;;;;;;;5095418;28;20496;-76
2022/08/04 08:53:03;;;;;;;3.13;2.80;;;;;;;;;;5082386;28;20966;-75
2022/08/04 08:55:35;;;;;;;3.53;3.23;;;;;;;;;;5074810;28;20518;-76
2022/08/04 08:58:16;;;;;;;2.80;2.60;;;;;;;;;;5075122;28;20440;-77
2022/08/04 09:00:48;;;;;;;3.23;2.93;;;;;;;;;;5075033;28;20465;-75
2022/08/04 09:03:29;;;;;;;3.43;2.70;;;;;;;;;;5074210;28;20456;-75
2022/08/04 09:06:15;;;;;;;3.43;2.90;;;;;;;;;;5074696;28;20444;-76
2022/08/04 09:08:58;;;;;;;4.60;2.77;;;;;;;;;;5074590;28;20440;-76
2022/08/04 09:11:26;;;;;;;3.80;2.77;;;;;;;;;;5074400;28;20989;-75
2022/08/04 09:13:56;;;;;;;2.63;2.53;;;;;;;;;;5074263;28;20460;-76
2022/08/04 09:16:30;;;;;;;4.43;2.63;;;;;;;;;;5074610;28;20432;-76
2022/08/04 09:19:02;;;;;;;3.10;2.90;;;;;;;;;;5082304;28;21097;-76
2022/08/04 09:21:32;;;;;;;3.60;3.33;;;;;;;;;;5094201;28;20487;-75
2022/08/04 09:24:06;;;;;;;5.60;2.60;;;;;;;;;;5094150;28;20464;-75
2022/08/04 09:26:38;;;;;;;3.40;2.80;;;;;;;;;;5094201;28;20446;-75
2022/08/04 09:29:09;;;;;;;3.17;2.80;;;;;;;;;;5094082;28;20818;-74
2022/08/04 09:31:39;;;;;;;3.47;2.93;;;;;;;;;;5093107;28;20448;-75
2022/08/04 09:34:09;;;;;;;2.70;2.53;;;;;;;;;;5094526;28;20520;-76
2022/08/04 09:36:40;;;;;;;4.77;3.10;;;;;;;;;;5094577;28;20451;-74
2022/08/04 09:39:10;;;;;;;2.97;2.67;;;;;;;;;;5094954;28;20444;-75
2022/08/04 09:41:42;;;;;;;3.20;2.83;;;;;;;;;;5094601;28;20579;-75
2022/08/04 09:44:15;;;;;;;2.73;2.53;;;;;;;;;;5094873;28;20447;-75
2022/08/04 09:46:44;;;;;;;4.10;3.27;;;;;;;;;;5094611;28;20519;-75
2022/08/04 09:49:14;;;;;;;3.20;2.90;;;;;;;;;;5094258;28;20849;-76
2022/08/04 09:51:46;;;;;;;2.73;2.50;;;;;;;;;;5094323;28;20515;-75
2022/08/04 09:54:19;;;;;;;3.00;2.70;;;;;;;;;;5093536;28;20497;-75
2022/08/04 09:56:54;;;;;;;2.53;2.30;;;;;;;;;;5094232;28;20428;-75
2022/08/04 09:59:24;;;;;;;3.17;2.87;;;;;;;;;;5094002;28;20956;-75
2022/08/04 10:01:53;;;;;;;5.27;2.50;;;;;;;;;;5094246;28;20432;-74
2022/08/04 10:04:20;;;;;;;2.90;2.70;;;;;;;;;;5094473;28;20505;-75
2022/08/04 10:07:03;;;;;;;8.20;2.43;;;;;;;;;;5093559;28;20440;-74
2022/08/04 10:09:51;;;;;;;3.17;2.53;;;;;;;;;;5093731;28;20500;-75
2022/08/04 10:12:27;;;;;;;2.70;2.50;;;;;;;;;;5088674;28;20451;-74
2022/08/04 10:15:03;;;;;;;3.23;2.30;;;;;;;;;;5082190;28;20467;-77
2022/08/04 10:17:38;;;;;;;3.30;2.87;;;;;;;;;;5091519;28;20455;-75
2022/08/04 10:20:09;;;;;;;2.90;2.70;;;;;;;;;;5093347;28;20520;-75
2022/08/04 10:22:38;;;;;;;2.43;2.33;;;;;;;;;;5092984;28;20467;-74
2022/08/04 10:25:10;;;;;;;6.47;3.10;;;;;;;;;;5093359;28;20459;-74
2022/08/04 10:27:41;;;;;;;2.77;2.57;;;;;;;;;;5092998;28;20447;-77
2022/08/04 10:30:10;;;;;;;2.77;2.57;;;;;;;;;;5093413;28;20435;-74
2022/08/04 10:32:43;;;;;;;2.87;2.67;;;;;;;;;;5092114;28;20440;-74
2022/08/04 10:35:11;;;;;;;3.70;2.43;;;;;;;;;;5097037;28;20507;-74
2022/08/04 10:37:40;;;;;;;2.70;2.50;;;;;;;;;;5100433;28;20861;-77
2022/08/04 10:43:00;;;;;;;2.80;2.60;;;;;;;;;;5092401;28;20415;-76
2022/08/04 10:45:33;;;;;;;2.37;2.20;;;;;;;;;;5094496;28;20521;-76
2022/08/04 10:48:06;;;;;;;2.83;2.63;;;;;;;;;;5094464;28;20482;-74
2022/08/04 10:50:35;;;;;;;2.60;2.20;;;;;;;;;;5086538;28;20739;-76
2022/08/04 10:53:06;;;;;;;2.73;2.57;;;;;;;;;;5092393;28;20436;-75
2022/08/04 10:55:35;;;;;;;2.90;2.67;;;;;;;;;;5092875;28;20467;-76
2022/08/04 10:58:05;;;;;;;2.83;2.13;;;;;;;;;;5092252;28;20935;-75
2022/08/04 11:00:36;;;;;;;2.63;2.43;;;;;;;;;;5092350;28;20571;-76
2022/08/04 11:03:07;;;;;;;2.83;2.40;;;;;;;;;;5092254;28;20452;-75
2022/08/04 11:05:38;;;;;;;2.50;2.23;;;;;;;;;;5092431;28;20558;-76
2022/08/04 11:08:06;;;;;;;2.30;2.20;;;;;;;;;;5092385;28;20852;-75
2022/08/04 11:10:37;;;;;;;2.10;2.00;;;;;;;;;;5092416;28;20439;-75
2022/08/04 11:13:08;;;;;;;2.30;2.20;;;;;;;;;;5090421;28;20451;-74
2022/08/04 11:15:38;;;;;;;2.83;2.00;;;;;;;;;;5089574;28;20447;-76
2022/08/04 11:18:06;;;;;;;2.10;1.90;;;;;;;;;;5114581;28;20439;-77
2022/08/04 11:20:37;;;;;;;2.40;2.20;;;;;;;;;;5113612;28;20475;-75
2022/08/04 11:23:06;;;;;;;3.50;2.17;;;;;;;;;;5113940;28;20481;-74
2022/08/04 11:25:37;;;;;;;2.67;2.50;;;;;;;;;;5107335;28;20507;-75
2022/08/04 11:28:08;;;;;;;2.70;2.47;;;;;;;;;;5092816;28;20439;-76
2022/08/04 11:30:38;;;;;;;2.50;2.07;;;;;;;;;;5092334;28;20894;-75
2022/08/04 11:33:07;;;;;;;2.27;2.17;;;;;;;;;;5092517;28;20512;-76
2022/08/04 11:35:36;;;;;;;2.57;2.37;;;;;;;;;;5092194;28;20570;-75
2022/08/04 11:38:09;;;;;;;2.00;1.90;;;;;;;;;;5092219;28;20450;-75
2022/08/04 11:40:42;;;;;;;2.10;2.00;;;;;;;;;;5093433;28;20471;-80
2022/08/04 11:43:12;;;;;;;2.10;2.00;;;;;;;;;;5092582;28;20978;-75
2022/08/04 11:45:42;;;;;;;2.13;2.03;;;;;;;;;;5091792;28;20504;-77
2022/08/04 11:48:11;;;;;;;5.00;1.93;;;;;;;;;;5091185;28;20860;-77
2022/08/04 11:50:40;;;;;;;2.77;2.57;;;;;;;;;;5090854;28;20446;-76
2022/08/04 11:53:08;;;;;;;2.70;2.50;;;;;;;;;;5090396;28;20554;-79
2022/08/04 11:55:36;;;;;;;2.10;2.00;;;;;;;;;;5090402;28;20463;-76
2022/08/04 11:58:03;;;;;;;2.13;2.00;;;;;;;;;;5090236;28;20818;-76
2022/08/04 12:00:31;;;;;;;2.63;2.43;;;;;;;;;;5090509;28;20511;-76
2022/08/04 12:03:12;;;;;;;4.40;2.20;;;;;;;;;;5090193;28;20458;-74
2022/08/04 12:05:44;;;;;;;2.57;2.37;;;;;;;;;;5089978;28;20491;-76
2022/08/04 12:08:19;;;;;;;2.73;2.20;;;;;;;;;;5090114;28;20923;-75
2022/08/04 12:10:49;;;;;;;2.40;2.17;;;;;;;;;;5090245;28;20439;-75
2022/08/04 12:13:21;;;;;;;2.50;2.20;;;;;;;;;;5089854;28;20467;-76
2022/08/04 12:15:52;;;;;;;4.00;2.17;;;;;;;;;;5090440;28;20493;-75
2022/08/04 12:18:23;;;;;;;2.40;2.20;;;;;;;;;;5090445;28;20447;-76
2022/08/04 12:20:51;;;;;;;2.20;2.10;;;;;;;;;;5096549;28;21013;-76
2022/08/04 12:23:21;;;;;;;2.20;2.10;;;;;;;;;;5095725;28;20501;-76
2022/08/04 12:25:50;;;;;;;2.53;2.17;;;;;;;;;;5095394;28;21046;-75
2022/08/04 12:28:20;;;;;;;2.53;2.33;;;;;;;;;;5095280;28;20833;-75
2022/08/04 12:30:49;;;;;;;2.57;2.43;;;;;;;;;;5097311;28;20444;-77
2022/08/04 12:33:21;;;;;;;2.40;2.30;;;;;;;;;;5094703;28;20497;-75
2022/08/04 12:35:54;;;;;;;2.77;2.57;;;;;;;;;;5093016;28;20856;-75
2022/08/04 12:38:23;;;;;;;2.30;2.20;;;;;;;;;;5092850;28;20455;-74
2022/08/04 12:40:51;;;;;;;2.20;2.10;;;;;;;;;;5090325;28;20994;-75
2022/08/04 12:43:21;;;;;;;2.60;2.37;;;;;;;;;;5089578;28;20447;-75
2022/08/04 12:45:50;;;;;;;2.57;2.37;;;;;;;;;;5089723;28;20468;-75
2022/08/04 12:48:17;;;;;;;4.10;2.50;;;;;;;;;;5091157;28;20516;-75
2022/08/04 12:50:47;;;;;;;2.03;1.93;;;;;;;;;;5090786;28;20790;-75
2022/08/04 12:53:17;;;;;;;2.17;2.07;;;;;;;;;;5089864;28;20493;-75
2022/08/04 12:55:46;;;;;;;2.33;2.23;;;;;;;;;;5089802;28;20855;-75
2022/08/04 12:58:15;;;;;;;2.30;2.20;;;;;;;;;;5089845;28;20530;-75
2022/08/04 13:00:43;;;;;;;2.97;2.40;;;;;;;;;;5089344;28;20914;-75
2022/08/04 13:03:12;;;;;;;2.70;2.50;;;;;;;;;;5089143;28;20512;-74
2022/08/04 13:05:40;;;;;;;2.97;2.70;;;;;;;;;;5089344;28;20524;-75
2022/08/04 13:08:08;;;;;;;2.70;2.60;;;;;;;;;;5092089;28;20443;-77
2022/08/04 13:10:40;;;;;;;2.03;1.93;;;;;;;;;;5081013;28;20908;-75
2022/08/04 13:13:12;;;;;;;2.50;2.33;;;;;;;;;;5072703;28;20447;-74
2022/08/04 13:15:39;;;;;;;2.80;2.17;;;;;;;;;;5072901;28;20468;-75
2022/08/04 13:18:08;;;;;;;2.27;2.17;;;;;;;;;;5072997;28;20436;-74
2022/08/04 13:20:36;;;;;;;2.23;2.13;;;;;;;;;;5072781;28;20462;-76
2022/08/04 13:23:07;;;;;;;2.03;1.93;;;;;;;;;;5072394;28;20439;-75
2022/08/04 13:25:38;;;;;;;2.53;2.33;;;;;;;;;;5074384;28;20459;-74
2022/08/04 13:28:09;;;;;;;2.50;2.40;;;;;;;;;;5077653;28;20448;-76
2022/08/04 13:30:36;;;;;;;3.77;2.63;;;;;;;;;;5073708;28;20489;-75
2022/08/04 13:33:03;;;;;;;2.57;2.10;;;;;;;;;;5072634;28;20450;-74
2022/08/04 13:35:31;;;;;;;2.43;2.23;;;;;;;;;;5072781;28;20971;-75
2022/08/04 13:37:59;;;;;;;2.93;2.20;;;;;;;;;;5072577;28;20440;-75
2022/08/04 13:40:27;;;;;;;2.60;2.40;;;;;;;;;;5072335;28;20448;-75
2022/08/04 13:42:55;;;;;;;2.37;2.17;;;;;;;;;;5071990;28;20500;-75
2022/08/04 13:45:25;;;;;;;2.57;2.47;;;;;;;;;;5072252;28;20506;-74
2022/08/04 13:47:58;;;;;;;2.33;2.10;;;;;;;;;;5073192;28;20448;-75
2022/08/04 13:50:26;;;;;;;2.90;2.00;;;;;;;;;;5073678;28;20459;-76
2022/08/04 13:52:54;;;;;;;1.97;1.90;;;;;;;;;;5072963;28;20445;-76
2022/08/04 13:55:25;;;;;;;3.90;2.43;;;;;;;;;;5072330;28;20874;-77
2022/08/04 13:57:57;;;;;;;2.60;2.40;;;;;;;;;;5072101;28;20448;-75
2022/08/04 14:00:26;;;;;;;2.40;2.30;;;;;;;;;;5072115;28;20448;-76
2022/08/04 14:03:00;;;;;;;4.30;2.40;;;;;;;;;;5072558;28;20534;-74
2022/08/04 14:05:28;;;;;;;2.17;2.07;;;;;;;;;;5071897;28;20979;-74
2022/08/04 14:07:58;;;;;;;2.53;2.33;;;;;;;;;;5071982;28;20436;-75
2022/08/04 14:10:25;;;;;;;2.27;2.17;;;;;;;;;;5082156;28;20500;-76
2022/08/04 14:12:53;;;;;;;2.20;2.00;;;;;;;;;;5091697;28;20996;-75
2022/08/04 14:15:31;;;;;;;2.20;2.10;;;;;;;;;;5092037;28;20523;-76
2022/08/04 14:18:16;;;;;;;2.57;2.37;;;;;;;;;;5092102;28;20445;-75
2022/08/04 14:20:58;;;;;;;2.07;1.93;;;;;;;;;;5091969;28;20487;-75
2022/08/04 14:23:25;;;;;;;2.30;2.10;;;;;;;;;;5092654;28;20459;-76
2022/08/04 14:25:52;;;;;;;2.40;2.30;;;;;;;;;;5091813;28;20467;-76
2022/08/04 14:28:27;;;;;;;2.40;2.30;;;;;;;;;;5091745;28;20455;-75
2022/08/04 14:31:09;;;;;;;3.30;2.43;;;;;;;;;;5091721;28;20785;-75
2022/08/04 14:33:40;;;;;;;2.87;2.33;;;;;;;;;;5091087;28;20443;-75
2022/08/04 14:36:07;;;;;;;2.40;2.20;;;;;;;;;;5091618;28;20926;-75
2022/08/04 14:38:51;;;;;;;3.47;2.33;;;;;;;;;;5091441;28;20443;-76
2022/08/04 14:41:20;;;;;;;2.40;2.20;;;;;;;;;;5091492;28;20586;-76
2022/08/04 14:43:48;;;;;;;2.37;2.20;;;;;;;;;;5105863;28;20489;-73
2022/08/04 14:46:16;;;;;;;3.17;2.40;;;;;;;;;;5116346;28;20452;-74
2022/08/04 14:48:58;;;;;;;2.50;2.30;;;;;;;;;;5116726;28;20435;-73
2022/08/04 14:51:25;;;;;;;2.50;2.30;;;;;;;;;;5111859;28;20439;-75
2022/08/04 14:53:53;;;;;;;2.27;2.17;;;;;;;;;;5093474;28;20697;-75
2022/08/04 14:56:20;;;;;;;4.23;2.10;;;;;;;;;;5091145;28;20466;-77
2022/08/04 14:58:47;;;;;;;2.60;2.50;;;;;;;;;;5091319;28;20443;-74
2022/08/04 15:01:17;;;;;;;2.43;2.23;;;;;;;;;;5091259;28;20444;-75
2022/08/04 15:03:46;;;;;;;2.23;2.13;;;;;;;;;;5091392;28;20458;-75
2022/08/04 15:06:13;;;;;;;2.20;2.10;;;;;;;;;;5091928;28;20455;-76
2022/08/04 15:08:40;;;;;;;2.00;1.90;;;;;;;;;;5091525;28;20443;-76
2022/08/04 15:11:07;;;;;;;2.20;2.10;;;;;;;;;;5075174;28;20436;-76
2022/08/04 15:13:34;;;;;;;2.37;2.27;;;;;;;;;;5071302;28;20456;-74
2022/08/04 15:16:01;;;;;;;2.67;2.23;;;;;;;;;;5071353;28;20530;-75